Time;durP1;ratioP1;P1;durP2;ratioP2;P2;SDS_P1;SDS_P2;PMS_P1;PMS_P2;Temp;Humidity;BMP_temperature;BMP_pressure;BME280_temperature;BME280_humidity;BME280_pressure;Samples;Min_cycle;Max_cycle;Signal;HPM_P1;HPM_P2
2024/04/08 00:00:35;;;;;;;7.73;2.83;;;;;;;14.42;100.00;100657.44;5369779;26;20782;-70
2024/04/08 00:03:03;;;;;;;5.70;2.60;;;;;;;14.44;100.00;100662.41;5348559;26;20246;-70
2024/04/08 00:05:28;;;;;;;4.30;2.33;;;;;;;14.47;100.00;100667.81;5339827;26;20316;-71
2024/04/08 00:07:56;;;;;;;5.10;2.97;;;;;;;14.49;100.00;100667.47;5330249;26;20258;-71
2024/04/08 00:10:22;;;;;;;4.60;2.80;;;;;;;14.50;100.00;100682.28;5340059;26;20244;-71
2024/04/08 00:12:50;;;;;;;4.23;2.30;;;;;;;14.52;100.00;100695.97;5345486;26;20365;-71
2024/04/08 00:15:16;;;;;;;3.20;2.57;;;;;;;14.51;100.00;100697.88;5356433;26;20632;-71
2024/04/08 00:17:47;;;;;;;3.60;2.70;;;;;;;14.48;100.00;100711.84;5348816;26;20299;-70
2024/04/08 00:20:13;;;;;;;5.53;2.90;;;;;;;14.46;100.00;100706.13;5323946;26;20595;-70
2024/04/08 00:22:42;;;;;;;6.50;2.53;;;;;;;14.43;100.00;100695.44;5362196;26;20253;-70
2024/04/08 00:25:09;;;;;;;4.53;2.60;;;;;;;14.40;100.00;100680.16;5331101;26;20296;-70
2024/04/08 00:27:40;;;;;;;5.23;2.80;;;;;;;14.35;100.00;100673.25;5336863;26;20243;-71
2024/04/08 00:30:07;;;;;;;4.97;2.50;;;;;;;14.33;100.00;100664.84;5335126;26;20249;-71
2024/04/08 00:32:35;;;;;;;8.43;2.73;;;;;;;14.30;100.00;100662.13;5347739;26;20241;-70
2024/04/08 00:35:04;;;;;;;4.53;2.80;;;;;;;14.27;100.00;100654.84;5329412;26;20301;-71
2024/04/08 00:37:32;;;;;;;5.40;2.67;;;;;;;14.25;100.00;100657.84;5363636;26;20802;-70
2024/04/08 00:39:57;;;;;;;6.43;3.13;;;;;;;14.25;100.00;100654.41;5334374;26;20363;-70
2024/04/08 00:42:25;;;;;;;4.70;2.80;;;;;;;14.22;100.00;100652.44;5363996;26;20231;-70
2024/04/08 00:44:51;;;;;;;4.83;2.60;;;;;;;14.20;100.00;100652.03;5351048;26;21076;-70
2024/04/08 00:47:19;;;;;;;3.47;2.73;;;;;;;14.17;100.00;100655.34;5353588;26;20641;-71
2024/04/08 00:49:46;;;;;;;2.70;2.50;;;;;;;14.14;100.00;100654.19;5346760;26;20892;-70
2024/04/08 00:52:18;;;;;;;3.83;2.40;;;;;;;14.13;100.00;100657.16;5343996;26;20307;-70
2024/04/08 00:54:46;;;;;;;5.67;3.00;;;;;;;14.10;100.00;100648.00;5336967;26;20245;-71
2024/04/08 00:57:17;;;;;;;4.13;2.70;;;;;;;14.09;100.00;100653.66;5359850;26;20237;-71
2024/04/08 00:59:42;;;;;;;6.47;2.87;;;;;;;14.08;100.00;100658.19;5339564;26;20304;-71
2024/04/08 01:02:10;;;;;;;9.13;2.77;;;;;;;14.06;100.00;100664.97;5357116;26;20347;-70
2024/04/08 01:04:37;;;;;;;3.73;2.77;;;;;;;14.05;100.00;100669.53;5337953;26;20240;-70
2024/04/08 01:07:05;;;;;;;7.67;3.20;;;;;;;14.04;100.00;100670.66;5345667;26;20242;-70
2024/04/08 01:09:33;;;;;;;8.73;2.67;;;;;;;14.04;100.00;100668.00;5346803;26;20285;-70
2024/04/08 01:12:01;;;;;;;4.30;2.97;;;;;;;14.03;100.00;100655.06;5337981;26;20601;-70
2024/04/08 01:14:27;;;;;;;6.97;2.97;;;;;;;14.03;100.00;100657.72;5354980;26;20297;-70
2024/04/08 01:16:55;;;;;;;7.07;2.80;;;;;;;14.03;100.00;100660.38;5347537;26;20622;-70
2024/04/08 01:19:23;;;;;;;5.20;2.60;;;;;;;14.04;100.00;100649.41;5339503;26;20346;-71
2024/04/08 01:21:51;;;;;;;5.27;3.03;;;;;;;14.05;100.00;100650.16;5330247;26;20637;-71
2024/04/08 01:24:19;;;;;;;6.37;3.03;;;;;;;14.05;100.00;100644.84;5360606;26;20384;-71
2024/04/08 01:26:47;;;;;;;3.23;2.67;;;;;;;14.06;100.00;100652.47;5347559;26;20238;-71
2024/04/08 01:29:12;;;;;;;5.30;2.50;;;;;;;14.06;100.00;100655.13;5340049;26;20376;-72
2024/04/08 01:31:41;;;;;;;4.80;2.57;;;;;;;14.07;100.00;100650.59;5364864;26;20246;-71
2024/04/08 01:34:07;;;;;;;4.47;2.70;;;;;;;14.06;100.00;100649.81;5335474;26;20242;-70
2024/04/08 01:36:35;;;;;;;3.17;2.87;;;;;;;14.08;100.00;100649.47;5350034;26;20283;-70
2024/04/08 01:39:00;;;;;;;4.43;3.03;;;;;;;14.07;100.00;100635.41;5350024;26;20294;-70
2024/04/08 01:41:31;;;;;;;3.90;2.77;;;;;;;14.08;100.00;100617.63;5357898;26;20692;-70
2024/04/08 01:43:57;;;;;;;5.50;3.00;;;;;;;14.09;100.00;100613.84;5354664;26;20301;-70
2024/04/08 01:46:25;;;;;;;3.80;2.67;;;;;;;14.09;100.00;100595.25;5352793;26;20356;-70
2024/04/08 01:48:50;;;;;;;4.73;2.60;;;;;;;14.09;100.00;100585.41;5359218;26;20803;-70
2024/04/08 01:51:18;;;;;;;4.60;3.33;;;;;;;14.11;100.00;100561.91;5352349;26;20243;-70
2024/04/08 01:53:43;;;;;;;7.97;3.07;;;;;;;14.15;100.00;100530.91;5345282;26;20339;-70
2024/04/08 01:56:11;;;;;;;6.07;2.57;;;;;;;14.26;100.00;100507.22;5345800;26;20739;-70
2024/04/08 01:58:39;;;;;;;5.50;3.10;;;;;;;14.33;100.00;100494.84;5349362;26;20343;-70
2024/04/08 02:01:07;;;;;;;6.03;2.73;;;;;;;14.40;100.00;100502.16;5343296;26;20239;-70
2024/04/08 02:03:33;;;;;;;2.87;2.40;;;;;;;14.47;100.00;100510.25;5342071;26;20315;-70
2024/04/08 02:06:01;;;;;;;3.30;2.60;;;;;;;14.55;100.00;100511.94;5350409;26;20243;-71
2024/04/08 02:08:26;;;;;;;7.33;2.43;;;;;;;14.63;100.00;100502.94;5343824;26;20285;-70
2024/04/08 02:10:54;;;;;;;3.80;2.23;;;;;;;14.70;100.00;100503.84;5347666;26;20756;-70
2024/04/08 02:13:20;;;;;;;4.83;2.57;;;;;;;14.76;100.00;100507.00;5335795;26;20242;-70
2024/04/08 02:15:50;;;;;;;5.43;2.43;;;;;;;14.81;100.00;100531.38;5345751;26;20239;-71
2024/04/08 02:18:16;;;;;;;4.17;2.20;;;;;;;14.85;100.00;100568.66;5332734;26;20309;-70
2024/04/08 02:20:44;;;;;;;4.03;2.50;;;;;;;14.88;100.00;100595.31;5349901;26;20328;-70
2024/04/08 02:23:09;;;;;;;4.53;2.53;;;;;;;14.89;100.00;100609.38;5347813;26;20246;-70
2024/04/08 02:25:39;;;;;;;4.23;2.77;;;;;;;14.88;100.00;100608.59;5341408;26;20257;-71
2024/04/08 02:28:08;;;;;;;3.67;2.27;;;;;;;14.87;100.00;100609.75;5343847;26;20710;-71
2024/04/08 02:30:35;;;;;;;5.63;2.63;;;;;;;14.87;100.00;100611.63;5349969;26;20246;-70
2024/04/08 02:33:07;;;;;;;4.40;2.50;;;;;;;14.85;100.00;100605.88;5348023;26;20273;-71
2024/04/08 02:35:34;;;;;;;4.93;3.00;;;;;;;14.84;100.00;100604.34;5355825;26;20297;-70
2024/04/08 02:38:04;;;;;;;4.97;2.50;;;;;;;14.81;100.00;100608.47;5362276;26;20257;-70
2024/04/08 02:40:31;;;;;;;6.23;2.57;;;;;;;14.80;100.00;100604.28;5337136;26;20243;-70
2024/04/08 02:43:00;;;;;;;3.93;2.60;;;;;;;14.76;100.00;100598.13;5356987;26;20277;-70
2024/04/08 02:45:28;;;;;;;9.00;2.60;;;;;;;14.73;100.00;100593.53;5336501;26;20237;-70
2024/04/08 02:47:59;;;;;;;4.53;2.90;;;;;;;14.70;100.00;100588.91;5366204;26;20237;-71
2024/04/08 02:50:27;;;;;;;4.33;2.80;;;;;;;14.67;100.00;100576.31;5337174;26;20236;-70
2024/04/08 02:52:55;;;;;;;3.87;2.50;;;;;;;14.65;100.00;100570.56;5333364;26;20248;-70
2024/04/08 02:55:21;;;;;;;2.50;2.30;;;;;;;14.61;100.00;100572.44;5337093;26;20381;-70
2024/04/08 02:57:50;;;;;;;4.07;2.50;;;;;;;14.57;100.00;100570.81;5336087;26;20823;-70
2024/04/08 03:00:16;;;;;;;4.07;2.70;;;;;;;14.54;100.00;100556.34;5348747;26;20336;-71
2024/04/08 03:02:45;;;;;;;7.70;2.80;;;;;;;14.51;100.00;100549.06;5347625;26;20256;-71
2024/04/08 03:05:11;;;;;;;5.10;2.73;;;;;;;14.47;100.00;100534.19;5338649;26;20291;-71
2024/04/08 03:07:42;;;;;;;8.13;2.77;;;;;;;14.43;100.00;100541.34;5351953;26;20313;-70
2024/04/08 03:10:07;;;;;;;4.87;2.87;;;;;;;14.38;100.00;100547.69;5334087;26;20786;-70
2024/04/08 03:12:36;;;;;;;4.70;2.90;;;;;;;14.34;100.00;100548.75;5344916;26;20625;-71
2024/04/08 03:15:02;;;;;;;8.73;2.70;;;;;;;14.29;100.00;100538.41;5342218;26;20367;-70
2024/04/08 03:17:30;;;;;;;4.20;2.93;;;;;;;14.23;100.00;100534.50;5344404;26;20320;-70
2024/04/08 03:19:57;;;;;;;7.83;3.00;;;;;;;14.19;100.00;100528.31;5344872;26;20290;-70
2024/04/08 03:22:26;;;;;;;5.80;3.00;;;;;;;14.13;100.00;100521.75;5346148;26;20246;-71
2024/04/08 03:24:55;;;;;;;6.07;3.00;;;;;;;14.07;100.00;100512.53;5333536;26;20305;-70
2024/04/08 03:27:23;;;;;;;5.67;3.00;;;;;;;14.02;100.00;100516.22;5336869;26;20247;-70
2024/04/08 03:29:50;;;;;;;3.73;2.97;;;;;;;13.96;100.00;100511.53;5351853;26;20305;-70
2024/04/08 03:32:18;;;;;;;4.30;3.40;;;;;;;13.89;100.00;100512.16;5347414;26;20249;-70
2024/04/08 03:34:43;;;;;;;4.33;2.87;;;;;;;13.85;100.00;100518.50;5354495;26;20241;-70
2024/04/08 03:37:11;;;;;;;4.07;3.27;;;;;;;13.79;100.00;100511.94;5362032;26;20836;-70
2024/04/08 03:39:39;;;;;;;6.03;3.10;;;;;;;13.73;100.00;100508.03;5347230;26;20874;-70
2024/04/08 03:42:11;;;;;;;5.10;3.10;;;;;;;13.67;100.00;100520.78;5356251;26;20273;-70
2024/04/08 03:44:39;;;;;;;3.40;3.10;;;;;;;13.61;100.00;100514.22;5344804;26;20242;-70
2024/04/08 03:47:07;;;;;;;5.23;3.40;;;;;;;13.56;100.00;100514.47;5366159;26;20290;-70
2024/04/08 03:49:33;;;;;;;5.10;3.30;;;;;;;13.50;100.00;100515.88;5356954;26;20298;-71
2024/04/08 03:52:01;;;;;;;2.63;2.43;;;;;;;13.47;100.00;100526.41;5352916;26;20691;-70
2024/04/08 03:54:26;;;;;;;3.90;3.27;;;;;;;13.41;100.00;100528.53;5343421;26;20798;-71
2024/04/08 03:56:54;;;;;;;8.97;3.37;;;;;;;13.37;100.00;100517.09;5350356;26;20324;-70
2024/04/08 03:59:23;;;;;;;7.57;3.83;;;;;;;13.33;100.00;100520.78;5343098;26;20280;-70
2024/04/08 04:01:51;;;;;;;5.33;2.93;;;;;;;13.26;100.00;100508.13;5359939;26;20248;-70
2024/04/08 04:04:17;;;;;;;4.43;2.90;;;;;;;13.24;100.00;100517.56;5342410;26;20298;-70
2024/04/08 04:06:45;;;;;;;7.57;3.30;;;;;;;13.20;100.00;100514.78;5365126;26;20239;-71
2024/04/08 04:09:10;;;;;;;5.57;3.33;;;;;;;13.18;100.00;100524.22;5343148;26;20261;-70
2024/04/08 04:11:39;;;;;;;4.83;3.13;;;;;;;13.13;100.00;100519.94;5337727;26;20723;-70
2024/04/08 04:14:05;;;;;;;3.83;2.90;;;;;;;13.09;100.00;100513.78;5346077;26;20310;-70
2024/04/08 04:16:35;;;;;;;10.40;3.10;;;;;;;13.07;100.00;100507.28;5347030;26;20234;-70
2024/04/08 04:19:01;;;;;;;7.03;3.57;;;;;;;13.03;100.00;100499.25;5354006;26;20250;-70
2024/04/08 04:21:29;;;;;;;8.43;3.50;;;;;;;13.01;100.00;100500.72;5345073;26;20721;-70
2024/04/08 04:23:54;;;;;;;4.20;3.53;;;;;;;12.97;100.00;100492.69;5333293;26;20299;-71
2024/04/08 04:26:23;;;;;;;5.97;3.13;;;;;;;12.96;100.00;100495.66;5342706;26;20352;-70
2024/04/08 04:28:48;;;;;;;5.70;3.37;;;;;;;12.94;100.00;100481.97;5338373;26;20769;-70
2024/04/08 04:31:16;;;;;;;3.80;3.23;;;;;;;12.91;100.00;100494.03;5359774;26;20238;-70
2024/04/08 04:33:44;;;;;;;4.00;3.17;;;;;;;12.90;100.00;100487.19;5344989;26;20602;-70
2024/04/08 04:36:12;;;;;;;4.93;3.60;;;;;;;12.89;100.00;100487.53;5336013;26;20599;-71
2024/04/08 04:38:38;;;;;;;7.20;3.63;;;;;;;12.89;100.00;100493.56;5341441;26;20249;-71
2024/04/08 04:41:09;;;;;;;7.00;3.70;;;;;;;12.89;100.00;100498.13;5362655;26;20319;-70
2024/04/08 04:43:35;;;;;;;4.60;3.87;;;;;;;12.89;100.00;100487.53;5346718;26;20281;-70
2024/04/08 04:46:03;;;;;;;6.57;3.67;;;;;;;12.90;100.00;100492.50;5333852;26;20233;-70
2024/04/08 04:48:29;;;;;;;8.57;3.77;;;;;;;12.90;100.00;100492.50;5340610;26;20246;-70
2024/04/08 04:50:59;;;;;;;6.13;3.60;;;;;;;12.91;100.00;100499.31;5366574;26;20347;-70
2024/04/08 04:53:27;;;;;;;6.93;3.73;;;;;;;12.93;100.00;100497.09;5352853;26;20295;-70
2024/04/08 04:55:56;;;;;;;8.13;3.70;;;;;;;12.94;100.00;100495.22;5345037;26;20250;-70
2024/04/08 04:58:22;;;;;;;4.43;3.47;;;;;;;12.96;100.00;100500.97;5328089;26;20292;-70
2024/04/08 05:00:51;;;;;;;5.50;3.30;;;;;;;12.99;100.00;100505.59;5338171;26;20331;-70
2024/04/08 05:03:16;;;;;;;9.23;3.40;;;;;;;13.01;100.00;100506.00;5361041;26;20269;-70
2024/04/08 05:05:44;;;;;;;8.10;3.60;;;;;;;13.03;100.00;100511.72;5345279;26;20238;-70
2024/04/08 05:08:12;;;;;;;6.77;4.10;;;;;;;13.05;100.00;100520.88;5345966;26;20281;-70
2024/04/08 05:10:41;;;;;;;10.30;3.60;;;;;;;13.08;100.00;100522.84;5350418;26;20235;-71
2024/04/08 05:13:07;;;;;;;5.90;3.77;;;;;;;13.11;100.00;100527.47;5358917;26;20576;-70
2024/04/08 05:15:35;;;;;;;10.77;3.90;;;;;;;13.14;100.00;100523.38;5328715;26;20673;-70
2024/04/08 05:18:01;;;;;;;8.77;4.20;;;;;;;13.17;100.00;100526.09;5354988;26;20738;-70
2024/04/08 05:20:30;;;;;;;4.00;3.43;;;;;;;13.20;100.00;100524.66;5320917;26;20290;-70
2024/04/08 05:22:58;;;;;;;5.20;3.70;;;;;;;13.25;100.00;100519.09;5325753;26;20243;-70
2024/04/08 05:25:29;;;;;;;8.23;4.03;;;;;;;13.26;100.00;100518.72;5332553;26;20278;-70
2024/04/08 05:27:55;;;;;;;8.60;4.00;;;;;;;13.32;100.00;100514.72;5353258;26;20261;-71
2024/04/08 05:30:23;;;;;;;8.80;4.40;;;;;;;13.36;100.00;100504.19;5335425;26;20239;-70
2024/04/08 05:32:48;;;;;;;6.97;4.00;;;;;;;13.40;100.00;100515.66;5339305;26;20730;-71
2024/04/08 05:35:16;;;;;;;10.83;4.60;;;;;;;13.44;100.00;100519.13;5343614;26;20247;-71
2024/04/08 05:37:42;;;;;;;6.37;3.73;;;;;;;13.47;100.00;100508.63;5339093;26;20327;-70
2024/04/08 05:40:16;;;;;;;11.50;6.33;;;;;;;13.53;100.00;100506.44;5339420;26;20231;-70
2024/04/08 05:42:45;;;;;;;9.83;4.23;;;;;;;13.58;100.00;100501.66;5349343;26;20271;-71
2024/04/08 05:45:14;;;;;;;9.47;3.87;;;;;;;13.63;100.00;100517.31;5346851;26;20236;-71
2024/04/08 05:47:39;;;;;;;10.93;4.20;;;;;;;13.68;100.00;100514.38;5343974;26;20249;-71
2024/04/08 05:50:08;;;;;;;8.83;4.33;;;;;;;13.73;100.00;100523.94;5343478;26;20796;-71
2024/04/08 05:52:34;;;;;;;11.10;5.43;;;;;;;13.78;100.00;100527.09;5323170;26;20277;-71
2024/04/08 05:55:02;;;;;;;8.87;4.43;;;;;;;13.82;100.00;100535.88;5345385;26;20724;-70
2024/04/08 05:57:27;;;;;;;7.10;4.47;;;;;;;13.90;100.00;100536.81;5330202;26;20237;-71
2024/04/08 05:59:58;;;;;;;7.47;4.17;;;;;;;13.94;100.00;100538.44;5365026;26;20237;-70
2024/04/08 06:02:24;;;;;;;10.70;8.93;;;;;;;14.00;100.00;100534.38;5346725;26;20319;-70
2024/04/08 06:04:54;;;;;;;9.30;4.53;;;;;;;14.06;100.00;100532.19;5349561;26;20247;-70
2024/04/08 06:07:20;;;;;;;7.87;4.23;;;;;;;14.12;100.00;100528.94;5332880;26;20296;-71
2024/04/08 06:09:48;;;;;;;10.70;4.27;;;;;;;14.19;100.00;100528.31;5345062;26;20250;-71
2024/04/08 06:12:13;;;;;;;7.87;4.17;;;;;;;14.25;100.00;100527.72;5353643;26;20569;-70
2024/04/08 06:14:41;;;;;;;7.80;4.27;;;;;;;14.33;100.00;100532.03;5353913;26;20284;-70
2024/04/08 06:17:11;;;;;;;9.63;5.43;;;;;;;14.43;100.00;100536.03;5351080;26;20835;-70
2024/04/08 06:19:42;;;;;;;8.30;5.47;;;;;;;14.51;100.00;100535.00;5342699;26;20677;-71
2024/04/08 06:22:12;;;;;;;13.67;4.80;;;;;;;14.62;100.00;100536.75;5348025;26;20230;-70
2024/04/08 06:24:42;;;;;;;9.83;7.23;;;;;;;14.73;100.00;100531.59;5353208;26;20639;-71
2024/04/08 06:27:15;;;;;;;11.93;8.73;;;;;;;14.83;100.00;100529.16;5330212;26;20282;-71
2024/04/08 06:29:47;;;;;;;6.07;3.90;;;;;;;14.96;100.00;100529.75;5336997;26;20768;-71
2024/04/08 06:32:20;;;;;;;10.30;6.10;;;;;;;15.07;100.00;100542.06;5363675;26;20813;-71
2024/04/08 06:34:48;;;;;;;6.53;5.30;;;;;;;15.19;100.00;100541.13;5337071;26;20234;-71
2024/04/08 06:37:21;;;;;;;6.60;4.70;;;;;;;15.30;100.00;100542.03;5337427;26;20240;-71
2024/04/08 06:39:52;;;;;;;12.73;4.70;;;;;;;15.44;100.00;100539.63;5348943;26;20337;-71
2024/04/08 06:42:23;;;;;;;7.57;3.90;;;;;;;15.58;100.00;100545.91;5345269;26;20236;-70
2024/04/08 06:44:52;;;;;;;11.40;5.10;;;;;;;15.70;100.00;100551.03;5342859;26;20585;-71
2024/04/08 06:47:24;;;;;;;5.33;4.13;;;;;;;15.84;100.00;100540.56;5348742;26;20857;-71
2024/04/08 06:49:52;;;;;;;7.87;4.63;;;;;;;15.99;100.00;100541.53;5327764;26;20255;-70
2024/04/08 06:52:22;;;;;;;10.03;4.27;;;;;;;16.14;100.00;100545.91;5326345;26;20363;-71
2024/04/08 06:54:48;;;;;;;8.83;3.93;;;;;;;16.28;100.00;100546.03;5351660;26;20579;-70
2024/04/08 06:57:20;;;;;;;8.17;4.10;;;;;;;16.43;100.00;100539.78;5332171;26;20239;-71
2024/04/08 06:59:48;;;;;;;5.47;3.90;;;;;;;16.57;100.00;100538.00;5336787;26;20290;-71
2024/04/08 07:02:21;;;;;;;7.53;4.57;;;;;;;16.70;100.00;100536.63;5350496;26;20250;-70
2024/04/08 07:04:50;;;;;;;10.67;4.80;;;;;;;16.83;100.00;100547.81;5342275;26;20308;-71
2024/04/08 07:07:21;;;;;;;6.57;3.90;;;;;;;16.95;100.00;100547.53;5346014;26;20246;-71
2024/04/08 07:09:50;;;;;;;8.13;4.10;;;;;;;17.07;100.00;100560.59;5347606;26;20355;-71
2024/04/08 07:12:25;;;;;;;8.63;5.47;;;;;;;17.17;100.00;100565.22;5337930;26;20301;-71
2024/04/08 07:14:52;;;;;;;10.17;4.00;;;;;;;17.27;100.00;100564.53;5338382;26;20230;-71
2024/04/08 07:17:21;;;;;;;8.90;4.17;;;;;;;17.35;100.00;100569.59;5347013;26;20234;-71
2024/04/08 07:19:50;;;;;;;6.50;4.10;;;;;;;17.45;100.00;100565.50;5350325;26;20280;-71
2024/04/08 07:22:18;;;;;;;5.90;3.93;;;;;;;17.56;100.00;100572.44;5355731;26;20355;-71
2024/04/08 07:24:44;;;;;;;7.90;4.40;;;;;;;17.66;100.00;100579.75;5336099;26;20762;-71
2024/04/08 07:27:16;;;;;;;6.83;4.20;;;;;;;17.76;100.00;100573.72;5345466;26;20308;-71
2024/04/08 07:29:42;;;;;;;11.20;4.50;;;;;;;17.86;100.00;100570.31;5345922;26;20814;-71
2024/04/08 07:32:10;;;;;;;9.50;4.30;;;;;;;17.97;100.00;100575.72;5367023;26;20230;-71
2024/04/08 07:34:37;;;;;;;7.40;4.27;;;;;;;18.06;100.00;100574.22;5345604;26;20281;-71
2024/04/08 07:37:08;;;;;;;11.33;4.30;;;;;;;18.16;100.00;100560.13;5333805;26;20232;-71
2024/04/08 07:39:34;;;;;;;6.57;4.33;;;;;;;18.29;100.00;100552.56;5332495;26;20833;-71
2024/04/08 07:42:08;;;;;;;6.50;4.57;;;;;;;18.43;100.00;100556.06;5347156;26;20653;-71
2024/04/08 07:44:35;;;;;;;8.03;4.50;;;;;;;18.58;100.00;100552.28;5333804;26;20272;-71
2024/04/08 07:47:03;;;;;;;6.37;3.70;;;;;;;18.73;100.00;100545.81;5335731;26;20250;-71
2024/04/08 07:49:29;;;;;;;9.00;4.40;;;;;;;18.90;100.00;100542.41;5345815;26;20293;-71
2024/04/08 07:52:04;;;;;;;12.20;3.63;;;;;;;19.06;100.00;100545.47;5320985;26;20257;-71
2024/04/08 07:54:36;;;;;;;10.30;3.80;;;;;;;19.21;100.00;100540.88;5344737;26;20671;-71
2024/04/08 07:57:06;;;;;;;5.73;3.57;;;;;;;19.36;100.00;100531.69;5336014;26;20629;-71
2024/04/08 07:59:36;;;;;;;11.37;3.23;;;;;;;19.53;100.00;100536.25;5333870;26;21199;-71
2024/04/08 08:02:13;;;;;;;6.93;3.40;;;;;;;19.72;100.00;100546.56;5344303;26;20270;-71
2024/04/08 08:04:41;;;;;;;10.00;3.43;;;;;;;19.88;100.00;100560.28;5342845;26;20285;-71
2024/04/08 08:07:20;;;;;;;4.53;3.13;;;;;;;20.05;100.00;100556.78;5327613;26;20274;-71
2024/04/08 08:10:06;;;;;;;8.98;3.38;;;;;;;20.22;100.00;100558.63;5336059;26;20507;-71
2024/04/08 08:12:34;;;;;;;7.57;3.13;;;;;;;20.38;100.00;100567.00;5341434;26;20383;-71
2024/04/08 08:15:07;;;;;;;8.68;3.03;;;;;;;20.52;100.00;100569.59;5331885;26;20250;-71
2024/04/08 08:17:40;;;;;;;4.82;3.00;;;;;;;20.64;100.00;100561.13;5326276;26;20234;-71
2024/04/08 08:20:14;;;;;;;5.38;2.97;;;;;;;20.77;100.00;100567.53;5335484;26;20568;-71
2024/04/08 08:22:45;;;;;;;6.68;2.60;;;;;;;20.87;100.00;100574.75;5331209;26;20237;-71
2024/04/08 08:25:16;;;;;;;12.55;3.38;;;;;;;20.95;100.00;100571.66;5338268;26;20281;-71
2024/04/08 08:27:44;;;;;;;6.90;2.78;;;;;;;21.02;100.00;100568.94;5331622;26;20598;-71
2024/04/08 08:30:16;;;;;;;2.75;2.22;;;;;;;21.05;90.23;100573.50;5332122;26;20930;-71
2024/04/08 08:32:46;;;;;;;9.43;3.45;;;;;;;21.08;92.52;100564.66;5343594;26;20236;-71
2024/04/08 08:35:20;;;;;;;7.78;2.70;;;;;;;21.15;87.70;100564.59;5341382;26;20403;-71
2024/04/08 08:37:48;;;;;;;6.70;3.08;;;;;;;21.21;90.53;100559.56;5335948;26;20595;-71
2024/04/08 08:40:20;;;;;;;5.22;2.50;;;;;;;21.30;91.34;100557.16;5336239;26;20239;-69
2024/04/08 08:42:50;;;;;;;13.40;3.17;;;;;;;21.38;92.19;100551.31;5342673;26;20249;-69
2024/04/08 08:45:18;;;;;;;7.15;2.42;;;;;;;21.46;93.38;100550.09;5345155;26;20281;-69
2024/04/08 08:47:50;;;;;;;6.80;2.85;;;;;;;21.52;84.49;100558.50;5334131;26;21101;-69
2024/04/08 08:50:26;;;;;;;8.55;2.90;;;;;;;21.60;85.36;100551.88;5332616;26;20294;-69
2024/04/08 08:52:52;;;;;;;5.20;2.72;;;;;;;21.68;86.96;100538.00;5331251;26;20268;-69
2024/04/08 08:55:23;;;;;;;3.95;2.67;;;;;;;21.78;87.11;100547.13;5338463;26;20237;-69
2024/04/08 08:57:51;;;;;;;9.77;3.00;;;;;;;21.86;86.76;100549.34;5326535;26;20859;-69
2024/04/08 09:00:22;;;;;;;6.20;2.72;;;;;;;21.95;84.02;100552.31;5328681;26;20619;-69
2024/04/08 09:02:56;;;;;;;11.73;3.38;;;;;;;22.05;79.63;100556.03;5347860;26;20348;-69
2024/04/08 09:05:24;;;;;;;8.75;2.67;;;;;;;22.14;81.34;100553.63;5341503;26;20310;-69
2024/04/08 09:07:59;;;;;;;6.47;2.90;;;;;;;22.23;85.75;100553.88;5336522;26;20275;-69
2024/04/08 09:10:42;;;;;;;7.07;2.50;;;;;;;22.32;81.45;100548.75;5326242;26;20230;-69
2024/04/08 09:13:25;;;;;;;8.88;2.95;;;;;;;22.41;77.05;100543.66;5327496;26;20650;-69
2024/04/08 09:15:59;;;;;;;5.75;2.78;;;;;;;22.48;77.70;100540.88;5339048;26;20233;-69
2024/04/08 09:18:28;;;;;;;6.45;2.65;;;;;;;22.54;82.99;100537.31;5325212;26;20262;-69
2024/04/08 09:21:01;;;;;;;8.95;2.70;;;;;;;22.63;78.98;100542.97;5320469;26;20250;-69
2024/04/08 09:23:35;;;;;;;9.13;2.67;;;;;;;22.71;82.54;100532.84;5324892;26;20796;-69
2024/04/08 09:26:04;;;;;;;6.05;2.50;;;;;;;22.78;76.32;100522.75;5322032;26;20692;-69
2024/04/08 09:28:39;;;;;;;5.22;2.47;;;;;;;22.87;78.95;100514.88;5326871;26;20757;-69
2024/04/08 09:31:10;;;;;;;7.78;3.15;;;;;;;22.94;75.73;100512.09;5318330;26;20245;-69
2024/04/08 09:33:44;;;;;;;7.40;3.30;;;;;;;23.05;72.25;100512.69;5325072;26;20254;-69
2024/04/08 09:36:16;;;;;;;6.10;2.75;;;;;;;23.14;72.39;100515.59;5321753;26;20293;-70
2024/04/08 09:39:05;;;;;;;5.35;2.47;;;;;;;23.22;75.49;100521.63;5333567;26;20240;-69
2024/04/08 09:41:38;;;;;;;6.85;2.80;;;;;;;23.33;72.85;100526.84;5333741;26;20250;-69
2024/04/08 09:44:10;;;;;;;6.07;3.50;;;;;;;23.39;68.96;100517.88;5335293;26;20238;-69
2024/04/08 09:46:39;;;;;;;6.65;2.70;;;;;;;23.46;65.05;100509.66;5335743;26;20820;-69
2024/04/08 09:49:15;;;;;;;5.05;3.05;;;;;;;23.54;69.82;100509.09;5329653;26;20246;-69
2024/04/08 09:51:46;;;;;;;6.90;2.90;;;;;;;23.67;68.38;100507.31;5333492;26;20246;-69
2024/04/08 09:54:17;;;;;;;6.68;2.92;;;;;;;23.77;68.42;100514.44;5328764;26;20239;-69
2024/04/08 09:56:54;;;;;;;6.25;2.80;;;;;;;23.88;65.88;100495.34;5329318;26;20294;-69
2024/04/08 09:59:26;;;;;;;7.18;2.50;;;;;;;23.98;71.26;100496.34;5331646;26;20552;-69
2024/04/08 10:01:59;;;;;;;5.57;2.92;;;;;;;24.09;69.44;100492.22;5353194;26;20283;-69
2024/04/08 10:04:38;;;;;;;5.63;2.90;;;;;;;24.23;70.41;100474.97;5324228;26;20255;-69
2024/04/08 10:07:05;;;;;;;5.43;2.20;;;;;;;24.34;66.00;100472.81;5333649;26;20249;-69
2024/04/08 10:09:41;;;;;;;5.47;2.65;;;;;;;24.50;64.04;100464.72;5334393;26;20269;-69
2024/04/08 10:12:10;;;;;;;5.47;2.63;;;;;;;24.65;63.50;100463.22;5321097;26;20295;-69
2024/04/08 10:14:50;;;;;;;4.43;2.30;;;;;;;24.79;66.96;100447.44;5327320;26;20242;-69
2024/04/08 10:17:41;;;;;;;4.25;2.47;;;;;;;25.03;66.70;100435.22;5325979;26;20766;-69
2024/04/08 10:20:17;;;;;;;6.60;2.67;;;;;;;25.17;63.41;100440.25;5325888;26;20239;-69
2024/04/08 10:22:46;;;;;;;7.32;2.42;;;;;;;25.34;66.87;100433.63;5329562;26;20289;-69
2024/04/08 10:25:42;;;;;;;6.65;2.55;;;;;;;25.52;66.58;100442.00;5327800;26;20242;-70
2024/04/08 10:28:14;;;;;;;4.57;2.20;;;;;;;25.68;57.53;100457.38;5317507;26;20234;-70
2024/04/08 10:30:49;;;;;;;9.63;2.58;;;;;;;25.82;59.72;100459.69;5332065;26;20257;-69
2024/04/08 10:33:22;;;;;;;5.07;2.75;;;;;;;25.92;56.15;100453.25;5332763;26;20753;-69
2024/04/08 10:35:54;;;;;;;7.63;2.70;;;;;;;25.99;50.72;100455.72;5334013;26;20247;-70
2024/04/08 10:38:23;;;;;;;9.20;2.13;;;;;;;26.06;51.18;100455.53;5319818;26;20436;-70
2024/04/08 10:40:54;;;;;;;7.82;2.50;;;;;;;26.20;61.28;100452.41;5330684;26;20246;-69
2024/04/08 10:43:23;;;;;;;4.88;2.40;;;;;;;26.30;53.37;100451.28;5330121;26;20250;-69
2024/04/08 10:45:56;;;;;;;3.88;2.10;;;;;;;26.36;51.03;100450.31;5332954;26;20292;-69
2024/04/08 10:48:22;;;;;;;5.40;2.45;;;;;;;26.40;55.40;100434.72;5333975;26;20801;-69
2024/04/08 10:50:59;;;;;;;9.82;2.55;;;;;;;26.47;49.82;100433.75;5334869;26;20247;-70
2024/04/08 10:53:29;;;;;;;7.63;2.50;;;;;;;26.54;49.95;100417.25;5335273;26;20824;-70
2024/04/08 10:56:01;;;;;;;4.78;2.30;;;;;;;26.60;50.90;100410.13;5319407;26;20277;-70
2024/04/08 10:58:39;;;;;;;5.32;2.35;;;;;;;26.65;50.29;100423.88;5337406;26;20250;-70
2024/04/08 11:01:25;;;;;;;5.85;2.30;;;;;;;26.67;49.39;100431.56;5323020;26;20495;-70
2024/04/08 11:03:58;;;;;;;9.77;2.30;;;;;;;26.67;48.00;100424.19;5321260;26;20695;-69
2024/04/08 11:06:33;;;;;;;7.43;2.53;;;;;;;26.71;54.62;100418.63;5328417;26;20234;-69
2024/04/08 11:09:06;;;;;;;6.70;2.17;;;;;;;26.73;44.98;100408.13;5333906;26;20297;-69
2024/04/08 11:11:45;;;;;;;7.18;2.45;;;;;;;26.75;47.68;100401.09;5327986;26;20723;-69
2024/04/08 11:14:17;;;;;;;8.05;2.90;;;;;;;26.75;47.05;100411.16;5337467;26;20892;-70
2024/04/08 11:16:46;;;;;;;5.75;2.50;;;;;;;26.75;47.15;100417.34;5337280;26;20294;-70
2024/04/08 11:19:22;;;;;;;8.07;2.40;;;;;;;26.77;51.91;100395.97;5322936;26;20854;-69
2024/04/08 11:22:00;;;;;;;5.13;2.00;;;;;;;26.73;48.36;100398.03;5327826;26;20713;-69
2024/04/08 11:24:30;;;;;;;9.55;2.22;;;;;;;26.76;50.29;100407.25;5335340;26;20242;-69
2024/04/08 11:27:04;;;;;;;4.25;2.35;;;;;;;26.75;50.88;100397.59;5332653;26;20805;-69
2024/04/08 11:29:36;;;;;;;4.35;2.08;;;;;;;26.76;47.37;100386.34;5321524;26;20325;-69